Terminal Aerodrome Forecast
Issued by NWS

Home | Current Version | Previous Version | Text Only | Print | Product List | Glossary Off
Versions: 1 2 3 4 5 6 7 8 9 10 11 12 13 14 15 16 17 18 19 20 21

000
FTUS43 KMPX 061332 AAB
TAFAXN
TAF AMD
KAXN 061332Z 0614/0712 13012KT 4SM BR VCSH OVC003
     FM061600 13013G20KT 5SM BR VCSH SCT004 BKN012
     FM061800 13014G23KT P6SM SCT012 BKN025 OVC040
     FM062100 12014G20KT 5SM -SHRA VCTS SCT025 OVC040CB
     FM070300 14012KT P6SM OVC040
     FM070800 14012KT 4SM -SHRA SCT007 OVC012=

USA.gov is the U.S. government's official web portal to all federal, state and local government web resources and services.